Portada
METAR-TAF:

METAR-TAF

Aeroports :

Kota Bharu, Malàisia

latitud: 06-10N, longitud: 102-17E, altitud: 5 m

Observació

L'informe es va fer fa 45 minuts, a les 10:00 UTC
Vent 11 kt del Est/Nord-Est, variant entre Nord/Nord-Est i Est
Temperatura 31°C
Humitat 75%
Pressió 1008 hPa
Visibilitat 10 km o més
Escasses núvols a una alçada de 1200 ft

METAR: WMKC 021000Z 06011KT 030V090 9999 FEW012 31/26 Q1008

Hora: 18:45 (10:45 UTC)

Pronòstic

L'informe es va fer fa 5 hores i 45 minuts, a les 05:00 UTC
Pronòstic vàlid del 02 a les 06 UTC al 03 a les 06 UTC
Vent 6 kt del Est/Nord-Est
Visibilitat 10 km o més
Escasses núvols a una alçada de 1800 ft
Evolucionant progressivament
l' 02 a les 14 UTC al 02 a les 16 UTC
Vent 3 kt amb direcció variable
Escasses núvols a una alçada de 2000 ft
Evolucionant progressivament
l' 02 a les 22 UTC al 03 a les 00 UTC
Escasses núvols a una alçada de 1800 ft

TAF: WMKC 020500Z 0206/0306 07006KT 9999 FEW018 BECMG 0214/0216 VRB03KT FEW020 BECMG 0222/0300 FEW018

Observacions i pronòstics meteorològics de més de 4000 aeroports (METAR i TAF).

Les estacions disponibles són els punts grocs i vermells al mapa.

Posi el ratolí al punt desitjat per veure el nom de l'estació.

Feu clic per veure les observacions i els pronòstics meteorològics.

Per canviar el mapa: feu clic els botons verds amb una creu de color negre per apropar; al botó verd amb un guió per allunyar la imatge; o en les fletxes verdes per a mapes adjacents.


METAR-TAF: